createdAt,value
2017-10-26T00:01:00.725Z,15.77
2017-10-26T00:03:34.582Z,17.20
2017-10-26T00:06:09.135Z,17.60
2017-10-26T00:08:42.814Z,17.77
2017-10-26T00:11:16.553Z,21.10
2017-10-26T00:13:51.209Z,19.40
2017-10-26T00:16:24.921Z,19.90
2017-10-26T00:18:58.769Z,20.43
2017-10-26T00:21:32.482Z,20.17
2017-10-26T00:24:07.049Z,22.00
2017-10-26T00:26:40.785Z,21.90
2017-10-26T00:29:14.595Z,21.07
2017-10-26T00:31:48.236Z,22.00
2017-10-26T00:34:23.487Z,20.97
2017-10-26T00:36:58.403Z,23.60
2017-10-26T00:39:32.073Z,23.83
2017-10-26T00:42:05.914Z,23.33
2017-10-26T00:44:39.766Z,24.10
2017-10-26T00:47:13.629Z,22.77
2017-10-26T00:49:47.444Z,24.77
2017-10-26T00:52:21.182Z,22.80
2017-10-26T00:54:55.092Z,24.13
2017-10-26T00:57:28.866Z,23.50
2017-10-26T01:00:03.285Z,24.37
2017-10-26T01:02:37.024Z,22.17
2017-10-26T01:05:10.830Z,21.77
2017-10-26T01:07:44.573Z,22.90
2017-10-26T01:10:18.830Z,21.80
2017-10-26T01:12:53.410Z,22.90
2017-10-26T01:15:28.035Z,23.23
2017-10-26T01:18:01.805Z,24.00
2017-10-26T01:20:35.576Z,21.67
2017-10-26T01:23:09.449Z,23.43
2017-10-26T01:25:43.285Z,22.70
2017-10-26T01:28:17.069Z,22.20
2017-10-26T01:30:50.660Z,23.23
2017-10-26T01:33:24.434Z,22.90
2017-10-26T01:35:58.313Z,22.20
2017-10-26T01:38:32.016Z,21.60
2017-10-26T01:41:05.890Z,23.50
2017-10-26T01:43:39.633Z,24.00
2017-10-26T01:46:13.533Z,22.80
2017-10-26T01:48:47.449Z,26.13
2017-10-26T01:51:21.178Z,29.53
2017-10-26T01:53:54.833Z,23.67
2017-10-26T01:56:28.613Z,24.80
2017-10-26T01:59:02.396Z,25.27
2017-10-26T02:01:36.275Z,24.77
2017-10-26T02:04:10.036Z,25.23
2017-10-26T02:06:43.893Z,23.27
2017-10-26T02:09:18.477Z,25.63
2017-10-26T02:11:52.376Z,26.60
2017-10-26T02:14:26.149Z,26.90
2017-10-26T02:16:59.854Z,27.47
2017-10-26T02:19:33.695Z,27.20
2017-10-26T02:22:07.318Z,26.60
2017-10-26T02:24:41.125Z,27.33
2017-10-26T02:27:14.859Z,27.00
2017-10-26T02:30:00.709Z,28.60
2017-10-26T02:32:34.482Z,28.13
2017-10-26T02:35:08.302Z,29.10
2017-10-26T02:37:41.947Z,25.90
2017-10-26T02:40:15.836Z,26.47
2017-10-26T02:42:49.594Z,27.63
2017-10-26T02:45:23.449Z,26.00
2017-10-26T02:47:57.208Z,29.90
2017-10-26T02:50:31.870Z,26.20
2017-10-26T02:53:05.568Z,26.53
2017-10-26T02:55:39.308Z,23.20
2017-10-26T02:58:13.083Z,25.50
2017-10-26T03:00:47.511Z,25.67
2017-10-26T03:03:21.589Z,23.87
2017-10-26T03:05:55.440Z,22.20
2017-10-26T03:08:29.913Z,23.00
2017-10-26T03:11:04.334Z,21.67
2017-10-26T03:13:39.007Z,21.80
2017-10-26T03:16:12.944Z,21.27
2017-10-26T03:18:47.528Z,22.53
2017-10-26T03:21:21.349Z,19.03
2017-10-26T03:23:56.676Z,18.80
2017-10-26T03:26:30.393Z,18.57
2017-10-26T03:29:04.137Z,16.60
2017-10-26T03:31:38.671Z,17.23
2017-10-26T03:34:12.901Z,16.07
2017-10-26T03:36:46.763Z,15.63
2017-10-26T03:39:20.494Z,13.93
2017-10-26T03:41:55.009Z,14.43
2017-10-26T03:44:30.418Z,15.37
2017-10-26T03:47:04.157Z,14.37
2017-10-26T03:49:38.033Z,14.80
2017-10-26T03:52:11.683Z,13.43
2017-10-26T03:54:45.366Z,14.03
2017-10-26T03:57:19.878Z,14.57
2017-10-26T03:59:53.653Z,12.73
2017-10-26T04:02:27.525Z,13.00
2017-10-26T04:05:01.356Z,10.57
2017-10-26T04:07:36.038Z,9.70
2017-10-26T04:10:09.789Z,10.70
2017-10-26T04:12:43.677Z,11.30
2017-10-26T04:15:17.413Z,9.80
2017-10-26T04:17:51.022Z,10.40
2017-10-26T04:20:24.847Z,10.10
2017-10-26T04:22:58.702Z,11.33
2017-10-26T04:25:33.220Z,11.80
2017-10-26T04:28:07.801Z,12.53
2017-10-26T04:30:45.398Z,12.53
2017-10-26T04:33:23.469Z,14.73
2017-10-26T04:35:57.263Z,14.63
2017-10-26T04:38:31.854Z,15.80
2017-10-26T04:41:05.537Z,17.63
2017-10-26T04:43:39.405Z,18.53
2017-10-26T04:46:13.917Z,18.40
2017-10-26T04:48:47.535Z,18.90
2017-10-26T04:51:21.275Z,19.37
2017-10-26T04:53:54.925Z,19.20
2017-10-26T04:56:29.409Z,21.60
2017-10-26T04:59:03.522Z,22.30
2017-10-26T05:01:38.006Z,21.93
2017-10-26T05:04:11.915Z,23.00
2017-10-26T05:06:45.760Z,22.50
2017-10-26T05:09:19.589Z,22.57
2017-10-26T05:11:53.807Z,23.93
2017-10-26T05:14:27.566Z,23.23
2017-10-26T05:17:01.971Z,23.30
2017-10-26T05:19:35.643Z,25.80
2017-10-26T05:22:09.426Z,25.97
2017-10-26T05:24:43.083Z,26.90
2017-10-26T05:27:16.822Z,25.70
2017-10-26T05:29:50.613Z,26.13
2017-10-26T05:32:24.402Z,25.10
2017-10-26T05:34:58.177Z,28.20
2017-10-26T05:37:32.170Z,26.70
2017-10-26T05:40:05.932Z,26.93
2017-10-26T05:42:40.477Z,24.03
2017-10-26T05:45:14.324Z,26.60
2017-10-26T05:47:48.203Z,24.97
2017-10-26T05:50:23.235Z,23.80
2017-10-26T05:52:57.047Z,25.73
2017-10-26T05:55:31.415Z,26.53
2017-10-26T05:58:05.958Z,27.23
2017-10-26T06:00:40.335Z,24.10
2017-10-26T06:03:14.535Z,24.27
2017-10-26T06:05:48.225Z,27.40
2017-10-26T06:08:22.722Z,24.47
2017-10-26T06:10:56.339Z,22.80
2017-10-26T06:13:31.042Z,24.87
2017-10-26T06:16:04.984Z,25.73
2017-10-26T06:18:38.666Z,26.60
2017-10-26T06:21:13.277Z,25.83
2017-10-26T06:23:46.885Z,27.27
2017-10-26T06:26:20.784Z,26.17
2017-10-26T06:28:54.601Z,27.47
2017-10-26T06:31:29.214Z,27.00
2017-10-26T06:34:03.080Z,25.83
2017-10-26T06:36:36.773Z,28.00
2017-10-26T06:39:10.618Z,27.97
2017-10-26T06:41:44.241Z,28.17
2017-10-26T06:44:18.016Z,26.83
2017-10-26T06:46:51.761Z,27.43
2017-10-26T06:49:25.565Z,27.90
2017-10-26T06:51:59.566Z,27.23
2017-10-26T06:54:34.060Z,28.53
2017-10-26T06:57:07.749Z,26.90
2017-10-26T06:59:41.617Z,27.03
2017-10-26T07:02:15.402Z,26.70
2017-10-26T07:04:53.952Z,28.00
2017-10-26T07:07:27.845Z,25.40
2017-10-26T07:10:01.533Z,24.70
2017-10-26T07:12:35.311Z,27.20
2017-10-26T07:15:09.127Z,23.17
2017-10-26T07:17:42.981Z,23.30
2017-10-26T07:20:16.734Z,21.43
2017-10-26T07:22:50.513Z,23.40
2017-10-26T07:25:24.140Z,22.63
2017-10-26T07:27:57.981Z,20.00
2017-10-26T07:30:31.785Z,21.63
2017-10-26T07:33:05.602Z,20.30
2017-10-26T07:35:40.246Z,20.70
2017-10-26T07:38:13.935Z,22.17
2017-10-26T07:40:47.994Z,22.30
2017-10-26T07:43:21.751Z,20.87
2017-10-26T07:45:55.478Z,21.30
2017-10-26T07:48:29.423Z,20.87
2017-10-26T07:51:03.127Z,21.10
2017-10-26T07:53:36.851Z,22.60
2017-10-26T07:56:11.474Z,21.57
2017-10-26T07:58:45.154Z,28.80
2017-10-26T08:01:18.857Z,21.70
2017-10-26T08:03:52.701Z,20.00
2017-10-26T08:06:26.391Z,20.27
2017-10-26T08:09:00.184Z,20.50
2017-10-26T08:11:33.968Z,19.90
2017-10-26T08:14:07.787Z,20.00
2017-10-26T08:16:41.399Z,20.33
2017-10-26T08:19:15.105Z,20.30
2017-10-26T08:21:49.726Z,20.40
2017-10-26T08:24:25.441Z,19.13
2017-10-26T08:26:59.307Z,20.93
2017-10-26T08:29:34.034Z,19.93
2017-10-26T08:32:07.751Z,21.03
2017-10-26T08:34:41.356Z,21.03
2017-10-26T08:37:15.129Z,24.27
2017-10-26T08:39:49.035Z,21.00
2017-10-26T08:42:23.665Z,20.50
2017-10-26T08:44:57.333Z,21.67
2017-10-26T08:47:31.207Z,20.83
2017-10-26T08:50:04.953Z,20.67
2017-10-26T08:52:38.777Z,20.13
2017-10-26T08:55:13.887Z,18.90
2017-10-26T08:57:47.652Z,20.73
2017-10-26T09:00:21.306Z,20.57
2017-10-26T09:02:55.586Z,22.63
2017-10-26T09:05:29.372Z,19.97
2017-10-26T09:08:03.848Z,22.00
2017-10-26T09:10:37.766Z,20.57
2017-10-26T09:13:11.537Z,21.73
2017-10-26T09:15:45.334Z,21.93
2017-10-26T09:18:19.222Z,21.07
2017-10-26T09:20:53.095Z,22.47
2017-10-26T09:23:26.939Z,21.83
2017-10-26T09:26:00.609Z,21.50
2017-10-26T09:28:34.440Z,19.80
2017-10-26T09:31:08.165Z,21.63
2017-10-26T09:33:41.978Z,21.97
2017-10-26T09:36:17.184Z,21.27
2017-10-26T09:38:50.870Z,21.77
2017-10-26T09:41:24.605Z,20.70
2017-10-26T09:43:59.162Z,22.60
2017-10-26T09:46:32.903Z,22.60
2017-10-26T09:49:07.399Z,22.30
2017-10-26T09:51:41.177Z,24.33
2017-10-26T09:54:15.017Z,21.20
2017-10-26T09:56:49.546Z,21.00
2017-10-26T09:59:23.156Z,38.60
2017-10-26T10:01:57.879Z,27.50
2017-10-26T10:04:31.625Z,23.30
2017-10-26T10:07:05.572Z,22.63
2017-10-26T10:09:39.206Z,23.90
2017-10-26T10:12:12.975Z,27.03
2017-10-26T10:14:46.753Z,24.30
2017-10-26T10:17:20.801Z,23.57
2017-10-26T10:19:54.676Z,22.40
2017-10-26T10:22:28.513Z,21.70
2017-10-26T10:25:02.236Z,22.47
2017-10-26T10:27:36.854Z,21.43
2017-10-26T10:30:10.547Z,20.90
2017-10-26T10:32:45.076Z,22.30
2017-10-26T10:35:18.954Z,22.23
2017-10-26T10:37:52.761Z,22.73
2017-10-26T10:40:26.605Z,33.63
2017-10-26T10:43:00.518Z,29.93
2017-10-26T10:45:34.202Z,20.07
2017-10-26T10:48:07.913Z,23.13
2017-10-26T10:50:41.755Z,23.03
2017-10-26T10:53:15.461Z,22.83
2017-10-26T10:55:50.105Z,21.77
2017-10-26T10:58:23.790Z,23.57
2017-10-26T11:00:57.620Z,26.23
2017-10-26T11:03:31.242Z,22.80
2017-10-26T11:06:04.997Z,23.30
2017-10-26T11:08:39.454Z,23.80
2017-10-26T11:11:15.408Z,23.53
2017-10-26T11:13:49.323Z,23.07
2017-10-26T11:16:23.025Z,24.33
2017-10-26T11:18:56.794Z,23.23
2017-10-26T11:21:30.921Z,22.80
2017-10-26T11:24:04.657Z,23.03
2017-10-26T11:26:38.461Z,22.90
2017-10-26T11:29:12.260Z,23.93
2017-10-26T11:31:46.055Z,22.50
2017-10-26T11:34:20.515Z,23.77
2017-10-26T11:36:55.175Z,22.60
2017-10-26T11:39:29.019Z,22.00
2017-10-26T11:42:02.895Z,22.63
2017-10-26T11:44:36.676Z,23.80
2017-10-26T11:47:10.411Z,21.67
2017-10-26T11:49:44.138Z,25.17
2017-10-26T11:52:18.639Z,23.13
2017-10-26T11:54:52.366Z,20.70
2017-10-26T11:57:26.146Z,23.47
2017-10-26T12:00:00.036Z,22.00
2017-10-26T12:02:33.817Z,25.27
2017-10-26T12:05:07.691Z,23.63
2017-10-26T12:07:41.813Z,22.43
2017-10-26T12:10:16.340Z,26.17
2017-10-26T12:12:52.012Z,26.23
2017-10-26T12:15:26.453Z,23.73
2017-10-26T12:18:00.290Z,26.40
2017-10-26T12:20:33.970Z,25.50
2017-10-26T12:23:08.508Z,24.60
2017-10-26T12:25:43.010Z,26.93
2017-10-26T12:28:17.547Z,25.03
2017-10-26T12:30:51.433Z,24.57
2017-10-26T12:33:25.699Z,22.97
2017-10-26T12:35:59.515Z,34.80
2017-10-26T12:38:33.926Z,23.10
2017-10-26T12:41:08.450Z,24.47
2017-10-26T12:43:42.394Z,22.30
2017-10-26T12:46:15.985Z,21.90
2017-10-26T12:48:49.782Z,21.37
2017-10-26T12:51:24.350Z,23.17
2017-10-26T12:53:58.198Z,23.27
2017-10-26T12:56:31.790Z,21.80
2017-10-26T12:59:05.695Z,20.43
2017-10-26T13:01:39.465Z,22.30
2017-10-26T13:04:13.194Z,21.20
2017-10-26T13:06:48.577Z,23.90
2017-10-26T13:09:23.069Z,21.27
2017-10-26T13:11:56.871Z,21.20
2017-10-26T13:14:30.618Z,20.43
2017-10-26T13:17:04.511Z,18.37
2017-10-26T13:19:38.360Z,20.67
2017-10-26T13:22:12.121Z,20.67
2017-10-26T13:24:46.198Z,19.70
2017-10-26T13:27:20.055Z,19.17
2017-10-26T13:29:53.809Z,21.40
2017-10-26T13:32:27.517Z,19.73
2017-10-26T13:35:01.270Z,19.97
2017-10-26T13:37:35.038Z,20.17
2017-10-26T13:40:09.142Z,18.03
2017-10-26T13:42:43.734Z,18.70
2017-10-26T13:45:17.550Z,20.77
2017-10-26T13:47:52.025Z,19.20
2017-10-26T13:50:25.905Z,19.20
2017-10-26T13:53:00.544Z,18.00
2017-10-26T13:55:34.445Z,20.23
2017-10-26T13:58:08.435Z,18.60
2017-10-26T14:00:42.055Z,17.90
2017-10-26T14:03:15.770Z,17.90
2017-10-26T14:05:49.524Z,17.57
2017-10-26T14:08:24.063Z,15.80
2017-10-26T14:10:57.766Z,19.03
2017-10-26T14:13:31.559Z,17.10
2017-10-26T14:16:06.697Z,19.27
2017-10-26T14:18:40.310Z,17.60
2017-10-26T14:21:14.014Z,18.43
2017-10-26T14:23:48.503Z,17.67
2017-10-26T14:26:22.296Z,19.47
2017-10-26T14:28:56.859Z,17.93
2017-10-26T14:31:30.417Z,16.60
2017-10-26T14:34:04.314Z,17.20
2017-10-26T14:36:37.965Z,15.67
2017-10-26T14:39:12.414Z,18.37
2017-10-26T14:41:46.892Z,17.20
2017-10-26T14:44:21.536Z,16.53
2017-10-26T14:46:56.124Z,17.57
2017-10-26T14:49:29.909Z,19.30
2017-10-26T14:52:03.751Z,19.30
2017-10-26T14:54:37.583Z,16.77
2017-10-26T14:57:11.566Z,17.23
2017-10-26T14:59:46.113Z,17.57
2017-10-26T15:02:19.713Z,19.30
2017-10-26T15:04:53.448Z,18.40
2017-10-26T15:07:27.591Z,18.27
2017-10-26T15:10:02.195Z,17.80
2017-10-26T15:12:37.637Z,19.90
2017-10-26T15:15:12.226Z,20.10
2017-10-26T15:17:45.914Z,18.50
2017-10-26T15:20:19.710Z,17.77
2017-10-26T15:22:53.490Z,19.10
2017-10-26T15:25:27.329Z,19.97
2017-10-26T15:28:01.104Z,19.27
2017-10-26T15:30:34.863Z,19.50
2017-10-26T15:33:09.429Z,20.73
2017-10-26T15:35:43.200Z,19.37
2017-10-26T15:38:16.942Z,18.77
2017-10-26T15:40:50.736Z,18.63
2017-10-26T15:43:24.490Z,24.03
2017-10-26T15:45:58.365Z,19.10
2017-10-26T15:48:32.104Z,20.37
2017-10-26T15:51:05.837Z,18.93
2017-10-26T15:53:40.335Z,18.00
2017-10-26T15:56:14.061Z,20.60
2017-10-26T15:58:47.781Z,20.53
2017-10-26T16:01:21.637Z,21.20
2017-10-26T16:03:55.433Z,18.93
2017-10-26T16:06:29.182Z,18.80
2017-10-26T16:09:02.934Z,20.53
2017-10-26T16:11:36.548Z,19.10
2017-10-26T16:14:11.055Z,19.67
2017-10-26T16:16:44.839Z,18.90
2017-10-26T16:19:18.684Z,19.00
2017-10-26T16:21:52.908Z,18.83
2017-10-26T16:24:26.708Z,20.80
2017-10-26T16:27:00.386Z,19.10
2017-10-26T16:29:34.071Z,20.37
2017-10-26T16:32:07.860Z,20.00
2017-10-26T16:34:41.613Z,20.07
2017-10-26T16:37:15.565Z,18.20
2017-10-26T16:39:49.368Z,19.10
2017-10-26T16:42:23.157Z,18.83
2017-10-26T16:44:58.391Z,20.40
2017-10-26T16:47:32.314Z,18.90
2017-10-26T16:50:06.051Z,16.00
2017-10-26T16:52:39.874Z,24.00
2017-10-26T16:55:13.706Z,20.73
2017-10-26T16:57:47.574Z,16.50
2017-10-26T17:00:21.333Z,18.13
2017-10-26T17:02:55.125Z,17.90
2017-10-26T17:05:28.829Z,17.70
2017-10-26T17:08:03.352Z,17.87
2017-10-26T17:10:37.225Z,18.43
2017-10-26T17:13:11.016Z,17.90
2017-10-26T17:15:44.802Z,21.00
2017-10-26T17:18:18.432Z,17.67
2017-10-26T17:20:52.306Z,87.93
2017-10-26T17:23:26.709Z,19.90
2017-10-26T17:26:01.115Z,17.83
2017-10-26T17:28:35.534Z,18.80
2017-10-26T17:31:09.308Z,18.10
2017-10-26T17:33:44.701Z,17.87
2017-10-26T17:36:19.135Z,17.80
2017-10-26T17:38:53.077Z,17.30
2017-10-26T17:41:27.662Z,22.47
2017-10-26T17:44:01.338Z,16.93
2017-10-26T17:46:35.105Z,16.70
2017-10-26T17:49:09.245Z,17.43
2017-10-26T17:51:44.589Z,18.40
2017-10-26T17:54:20.050Z,20.90
2017-10-26T17:56:53.991Z,18.00
2017-10-26T17:59:27.767Z,22.03
2017-10-26T18:02:03.516Z,18.20
2017-10-26T18:04:37.341Z,17.03
2017-10-26T18:07:11.086Z,17.50
2017-10-26T18:09:44.991Z,17.87
2017-10-26T18:12:18.721Z,17.27
2017-10-26T18:14:52.577Z,16.87
2017-10-26T18:17:26.385Z,18.23
2017-10-26T18:20:00.306Z,16.77
2017-10-26T18:22:34.355Z,18.07
2017-10-26T18:25:08.215Z,17.60
2017-10-26T18:27:42.218Z,18.07
2017-10-26T18:30:16.165Z,18.47
2017-10-26T18:32:49.913Z,16.10
2017-10-26T18:35:23.716Z,15.40
2017-10-26T18:37:57.647Z,15.47
2017-10-26T18:40:32.105Z,16.40
2017-10-26T18:43:07.293Z,15.30
2017-10-26T18:45:40.872Z,17.63
2017-10-26T18:48:14.717Z,16.47
2017-10-26T18:50:48.596Z,18.37
2017-10-26T18:53:22.461Z,16.07
2017-10-26T18:55:57.065Z,16.80
2017-10-26T18:58:31.625Z,17.27
2017-10-26T19:01:06.140Z,17.63
2017-10-26T19:03:39.880Z,18.03
2017-10-26T19:06:14.543Z,15.30
2017-10-26T19:08:48.267Z,15.60
2017-10-26T19:11:22.089Z,16.03
2017-10-26T19:13:55.709Z,16.03
2017-10-26T19:16:29.636Z,15.63
2017-10-26T19:19:03.394Z,14.90
2017-10-26T19:21:37.265Z,15.53
2017-10-26T19:24:11.792Z,14.90
2017-10-26T19:26:45.526Z,14.80
2017-10-26T19:29:19.221Z,16.10
2017-10-26T19:31:54.762Z,13.43
2017-10-26T19:34:28.497Z,14.60
2017-10-26T19:37:02.171Z,13.20
2017-10-26T19:39:38.043Z,14.77
2017-10-26T19:42:12.919Z,14.27
2017-10-26T19:44:46.782Z,13.30
2017-10-26T19:47:20.941Z,14.30
2017-10-26T19:49:54.761Z,12.90
2017-10-26T19:52:29.346Z,13.80
2017-10-26T19:55:03.336Z,13.50
2017-10-26T19:57:37.206Z,13.93
2017-10-26T20:00:12.324Z,14.33
2017-10-26T20:02:46.093Z,12.43
2017-10-26T20:05:19.929Z,11.60
2017-10-26T20:07:53.715Z,11.73
2017-10-26T20:10:27.477Z,11.17
2017-10-26T20:13:03.713Z,14.33
2017-10-26T20:15:37.594Z,16.63
2017-10-26T20:18:11.336Z,10.77
2017-10-26T20:20:45.917Z,14.40
2017-10-26T20:23:20.402Z,10.90
2017-10-26T20:25:54.250Z,10.00
2017-10-26T20:28:28.006Z,10.87
2017-10-26T20:31:01.834Z,8.97
2017-10-26T20:33:35.637Z,9.67
2017-10-26T20:36:09.420Z,10.10
2017-10-26T20:38:43.233Z,9.50
2017-10-26T20:41:17.002Z,8.63
2017-10-26T20:43:50.903Z,9.20
2017-10-26T20:46:24.665Z,8.60
2017-10-26T20:48:58.505Z,8.33
2017-10-26T20:51:38.064Z,8.47
2017-10-26T20:54:17.701Z,7.33
2017-10-26T20:56:57.222Z,7.70
2017-10-26T20:59:36.806Z,6.80
2017-10-26T21:02:16.465Z,7.50
2017-10-26T21:04:56.155Z,7.03
2017-10-26T21:07:35.655Z,6.87
2017-10-26T21:10:15.283Z,7.03
2017-10-26T21:12:54.758Z,7.17
2017-10-26T21:15:28.701Z,6.20
2017-10-26T21:18:02.605Z,5.50
2017-10-26T21:20:36.309Z,5.70
2017-10-26T21:23:10.992Z,6.37
2017-10-26T21:25:46.100Z,6.30
2017-10-26T21:28:19.713Z,5.83
2017-10-26T21:30:53.525Z,6.23
2017-10-26T21:33:27.274Z,6.13
2017-10-26T21:36:01.077Z,5.20
2017-10-26T21:38:35.673Z,5.20
2017-10-26T21:41:09.377Z,5.40
2017-10-26T21:43:43.197Z,5.10
2017-10-26T21:46:17.143Z,6.60
2017-10-26T21:48:50.984Z,5.40
2017-10-26T21:51:24.649Z,6.43
2017-10-26T21:53:58.411Z,6.57
2017-10-26T21:56:32.889Z,5.90
2017-10-26T21:59:06.536Z,6.93
2017-10-26T22:01:40.301Z,6.60
2017-10-26T22:04:14.227Z,6.43
2017-10-26T22:06:48.915Z,5.50
2017-10-26T22:09:23.333Z,6.50
2017-10-26T22:11:56.945Z,6.90
2017-10-26T22:14:31.830Z,6.60
2017-10-26T22:17:05.673Z,5.40
2017-10-26T22:19:39.386Z,6.43
2017-10-26T22:22:13.941Z,5.37
2017-10-26T22:24:48.433Z,5.23
2017-10-26T22:27:22.190Z,5.30
2017-10-26T22:29:55.930Z,5.80
2017-10-26T22:32:29.797Z,4.70
2017-10-26T22:35:03.607Z,5.30
2017-10-26T22:37:37.353Z,4.67
2017-10-26T22:40:11.272Z,4.80
2017-10-26T22:42:45.778Z,5.47
2017-10-26T22:45:19.723Z,5.10
2017-10-26T22:47:53.541Z,4.70
2017-10-26T22:50:27.300Z,4.60
2017-10-26T22:53:02.209Z,4.40
2017-10-26T22:55:36.122Z,4.67
2017-10-26T22:58:09.917Z,5.73
2017-10-26T23:00:43.755Z,5.53
2017-10-26T23:03:17.537Z,5.57
2017-10-26T23:05:51.509Z,5.63
2017-10-26T23:08:25.380Z,4.87
2017-10-26T23:10:59.222Z,4.63
2017-10-26T23:13:33.017Z,5.10
2017-10-26T23:16:06.882Z,5.20
2017-10-26T23:18:41.420Z,4.70
2017-10-26T23:21:15.703Z,4.50
2017-10-26T23:23:49.366Z,5.63
2017-10-26T23:26:23.336Z,5.40
2017-10-26T23:28:57.157Z,5.20
2017-10-26T23:31:31.108Z,4.43
2017-10-26T23:34:04.917Z,4.23
2017-10-26T23:36:39.506Z,4.87
2017-10-26T23:39:13.416Z,5.47
2017-10-26T23:41:47.057Z,4.80
2017-10-26T23:44:20.917Z,4.00
2017-10-26T23:46:54.734Z,6.30
2017-10-26T23:49:29.182Z,5.17
2017-10-26T23:52:03.651Z,4.53
2017-10-26T23:54:37.645Z,4.73
2017-10-26T23:57:11.331Z,5.43
2017-10-26T23:59:45.270Z,5.50
